RCH3512 RODN-RODN
Flight info
| Callsign | RCH3512 |
|---|---|
| Flight time | 3h 25m |
| Altitude | 21000 |
| Route | KXC DCT SJE DCT IGE DCT MJC DCT 2446N12734E/N0190A060 DCT 2437N12807E/N0150A020 STAY1/0020 DCT 2504N12839E/N0280F190 DCT MDE DCT TIT STAY2/0010 |
| Aircraft | C130/M-SDE2E3FGRY/H |
Departure
| Time | 2026-04-22 20:09 |
|---|---|
| Airport | Kadena Air Base (RODN) |
Arrival
| Time | 2026-04-22 23:35 |
|---|---|
| Airport | Kadena Air Base (RODN) |
| Time | Latitude | Longitude | Altitude | Speed | Heading |
|---|---|---|---|---|---|
| 2026-04-22 19:27 | 26.36323 | 127.76798 | 121 ft | 0 kts | 334° |
| 2026-04-22 19:58 | 26.36324 | 127.76797 | 121 ft | 1 kts | 336° |
| 2026-04-22 19:58 | 26.36333 | 127.76801 | 118 ft | 2 kts | 23° |
| 2026-04-22 19:59 | 26.36335 | 127.76816 | 117 ft | 2 kts | 95° |
| 2026-04-22 20:00 | 26.36461 | 127.77130 | 115 ft | 9 kts | 54° |
| 2026-04-22 20:00 | 26.36491 | 127.77183 | 112 ft | 8 kts | 62° |
| 2026-04-22 20:01 | 26.36513 | 127.77233 | 113 ft | 7 kts | 63° |
| 2026-04-22 20:01 | 26.36532 | 127.77276 | 113 ft | 6 kts | 64° |
| 2026-04-22 20:01 | 26.36550 | 127.77318 | 111 ft | 6 kts | 64° |
| 2026-04-22 20:01 | 26.36567 | 127.77357 | 112 ft | 5 kts | 64° |
| 2026-04-22 20:02 | 26.36583 | 127.77395 | 111 ft | 5 kts | 64° |
| 2026-04-22 20:02 | 26.36599 | 127.77432 | 110 ft | 5 kts | 64° |
| 2026-04-22 20:02 | 26.36616 | 127.77468 | 111 ft | 5 kts | 63° |
| 2026-04-22 20:02 | 26.36632 | 127.77504 | 110 ft | 5 kts | 63° |
| 2026-04-22 20:03 | 26.36648 | 127.77539 | 110 ft | 5 kts | 63° |
| 2026-04-22 20:03 | 26.36666 | 127.77572 | 109 ft | 5 kts | 58° |
| 2026-04-22 20:03 | 26.36684 | 127.77604 | 108 ft | 5 kts | 57° |
| 2026-04-22 20:03 | 26.36703 | 127.77636 | 108 ft | 5 kts | 57° |
| 2026-04-22 20:04 | 26.36721 | 127.77668 | 107 ft | 5 kts | 57° |
| 2026-04-22 20:04 | 26.36739 | 127.77699 | 105 ft | 5 kts | 57° |
| 2026-04-22 20:04 | 26.36758 | 127.77731 | 106 ft | 5 kts | 57° |
| 2026-04-22 20:04 | 26.36774 | 127.77763 | 105 ft | 5 kts | 60° |
| 2026-04-22 20:05 | 26.36789 | 127.77797 | 104 ft | 5 kts | 70° |
| 2026-04-22 20:05 | 26.36789 | 127.77837 | 103 ft | 5 kts | 99° |
| 2026-04-22 20:05 | 26.36775 | 127.77875 | 100 ft | 5 kts | 118° |
| 2026-04-22 20:05 | 26.36757 | 127.77906 | 98 ft | 4 kts | 124° |
| 2026-04-22 20:06 | 26.36740 | 127.77930 | 98 ft | 4 kts | 131° |
| 2026-04-22 20:06 | 26.36726 | 127.77942 | 98 ft | 2 kts | 149° |
| 2026-04-22 20:06 | 26.36708 | 127.77949 | 105 ft | 4 kts | 165° |
| 2026-04-22 20:06 | 26.36684 | 127.77949 | 98 ft | 3 kts | 190° |
| 2026-04-22 20:07 | 26.36666 | 127.77941 | 99 ft | 3 kts | 207° |
| 2026-04-22 20:07 | 26.36660 | 127.77934 | 98 ft | 0 kts | 229° |
| 2026-04-22 20:08 | 26.36642 | 127.77910 | 99 ft | 26 kts | 230° |
| 2026-04-22 20:08 | 26.36311 | 127.77482 | 110 ft | 115 kts | 229° |
| 2026-04-22 20:09 | 26.35773 | 127.76610 | 406 ft | 149 kts | 234° |
| 2026-04-22 20:09 | 26.35252 | 127.75608 | 615 ft | 153 kts | 237° |
| 2026-04-22 20:09 | 26.34708 | 127.74493 | 711 ft | 175 kts | 240° |
| 2026-04-22 20:09 | 26.34256 | 127.73246 | 874 ft | 178 kts | 248° |
| 2026-04-22 20:10 | 26.33992 | 127.71876 | 1192 ft | 183 kts | 257° |
| 2026-04-22 20:10 | 26.33837 | 127.70475 | 1749 ft | 185 kts | 262° |
| 2026-04-22 20:10 | 26.33869 | 127.69054 | 1978 ft | 184 kts | 270° |
| 2026-04-22 20:10 | 26.34119 | 127.67645 | 2130 ft | 186 kts | 280° |
| 2026-04-22 20:11 | 26.34507 | 127.66250 | 2160 ft | 193 kts | 281° |
| 2026-04-22 20:11 | 26.34915 | 127.64844 | 2155 ft | 190 kts | 281° |
| 2026-04-22 20:11 | 26.35302 | 127.63430 | 2206 ft | 189 kts | 276° |
| 2026-04-22 20:11 | 26.35461 | 127.61995 | 2198 ft | 186 kts | 268° |
| 2026-04-22 20:12 | 26.35500 | 127.60557 | 2196 ft | 184 kts | 266° |
| 2026-04-22 20:12 | 26.35524 | 127.59147 | 2256 ft | 180 kts | 266° |
| 2026-04-22 20:12 | 26.35538 | 127.58192 | 2545 ft | 184 kts | 266° |
| 2026-04-22 20:12 | 26.35570 | 127.56312 | 3131 ft | 184 kts | 267° |
| 2026-04-22 20:13 | 26.35597 | 127.54856 | 3612 ft | 190 kts | 268° |
| 2026-04-22 20:13 | 26.35625 | 127.53389 | 4098 ft | 190 kts | 268° |
| 2026-04-22 20:13 | 26.35655 | 127.51887 | 4604 ft | 195 kts | 268° |
| 2026-04-22 20:13 | 26.35687 | 127.50378 | 5089 ft | 195 kts | 268° |
| 2026-04-22 20:14 | 26.35720 | 127.48860 | 5586 ft | 196 kts | 268° |
| 2026-04-22 20:14 | 26.35752 | 127.47332 | 6122 ft | 200 kts | 268° |
| 2026-04-22 20:14 | 26.35785 | 127.45773 | 6623 ft | 202 kts | 268° |
| 2026-04-22 20:14 | 26.35819 | 127.44202 | 7129 ft | 204 kts | 268° |
| 2026-04-22 20:15 | 26.35853 | 127.42606 | 7672 ft | 206 kts | 268° |
| 2026-04-22 20:15 | 26.35887 | 127.40994 | 8231 ft | 211 kts | 268° |
| 2026-04-22 20:15 | 26.35921 | 127.39329 | 8816 ft | 218 kts | 268° |
| 2026-04-22 20:15 | 26.35957 | 127.37636 | 9423 ft | 220 kts | 268° |
| 2026-04-22 20:16 | 26.35994 | 127.35924 | 10012 ft | 222 kts | 268° |
| 2026-04-22 20:16 | 26.36031 | 127.34203 | 10588 ft | 223 kts | 268° |
| 2026-04-22 20:16 | 26.36067 | 127.32466 | 11190 ft | 224 kts | 268° |
| 2026-04-22 20:16 | 26.36104 | 127.30732 | 11808 ft | 224 kts | 268° |
| 2026-04-22 20:17 | 26.36140 | 127.28995 | 12441 ft | 224 kts | 268° |
| 2026-04-22 20:17 | 26.36176 | 127.27267 | 13085 ft | 223 kts | 268° |
| 2026-04-22 20:17 | 26.36211 | 127.25541 | 13721 ft | 221 kts | 268° |
| 2026-04-22 20:17 | 26.36246 | 127.23837 | 14286 ft | 219 kts | 269° |
| 2026-04-22 20:18 | 26.36281 | 127.22142 | 14858 ft | 218 kts | 269° |
| 2026-04-22 20:18 | 26.36315 | 127.20458 | 15410 ft | 217 kts | 270° |
| 2026-04-22 20:18 | 26.36348 | 127.18782 | 15964 ft | 216 kts | 270° |
| 2026-04-22 20:18 | 26.36381 | 127.17117 | 16509 ft | 215 kts | 270° |
| 2026-04-22 20:19 | 26.36414 | 127.15445 | 17051 ft | 214 kts | 270° |
| 2026-04-22 20:19 | 26.36447 | 127.13788 | 17582 ft | 214 kts | 271° |
| 2026-04-22 20:19 | 26.36479 | 127.12153 | 18106 ft | 213 kts | 271° |
| 2026-04-22 20:19 | 26.36510 | 127.10514 | 18558 ft | 212 kts | 271° |
| 2026-04-22 20:20 | 26.36542 | 127.08877 | 19002 ft | 211 kts | 271° |
| 2026-04-22 20:20 | 26.36573 | 127.07250 | 19441 ft | 210 kts | 271° |
| 2026-04-22 20:20 | 26.36604 | 127.05617 | 19875 ft | 210 kts | 271° |
| 2026-04-22 20:20 | 26.36635 | 127.03993 | 20299 ft | 209 kts | 271° |
| 2026-04-22 20:21 | 26.36665 | 127.02377 | 20710 ft | 210 kts | 271° |
| 2026-04-22 20:21 | 26.36697 | 127.00703 | 20834 ft | 223 kts | 271° |
| 2026-04-22 20:21 | 26.36730 | 126.98919 | 20861 ft | 237 kts | 270° |
| 2026-04-22 20:21 | 26.36764 | 126.97025 | 20860 ft | 251 kts | 270° |
| 2026-04-22 20:22 | 26.36800 | 126.95036 | 20851 ft | 262 kts | 270° |
| 2026-04-22 20:22 | 26.36838 | 126.92958 | 20853 ft | 271 kts | 270° |
| 2026-04-22 20:22 | 26.36877 | 126.90838 | 20836 ft | 278 kts | 270° |
| 2026-04-22 20:22 | 26.36916 | 126.88658 | 20835 ft | 284 kts | 270° |
| 2026-04-22 20:23 | 26.36955 | 126.86446 | 20838 ft | 288 kts | 270° |
| 2026-04-22 20:23 | 26.36995 | 126.84200 | 20835 ft | 292 kts | 270° |
| 2026-04-22 20:23 | 26.37035 | 126.81920 | 20834 ft | 295 kts | 270° |
| 2026-04-22 20:23 | 26.37074 | 126.79624 | 20829 ft | 297 kts | 270° |
| 2026-04-22 20:24 | 26.37114 | 126.77312 | 20833 ft | 299 kts | 270° |
| 2026-04-22 20:24 | 26.37125 | 126.74986 | 20832 ft | 301 kts | 265° |
| 2026-04-22 20:24 | 26.36578 | 126.72737 | 20836 ft | 303 kts | 246° |
| 2026-04-22 20:24 | 26.35367 | 126.70808 | 20831 ft | 308 kts | 232° |
| 2026-04-22 20:25 | 26.33900 | 126.69057 | 20844 ft | 309 kts | 230° |
| 2026-04-22 20:25 | 26.32379 | 126.67342 | 20828 ft | 310 kts | 229° |
| 2026-04-22 20:25 | 26.30839 | 126.65672 | 20831 ft | 311 kts | 227° |
| 2026-04-22 20:25 | 26.29266 | 126.64001 | 20834 ft | 311 kts | 227° |
| 2026-04-22 20:26 | 26.27687 | 126.62344 | 20844 ft | 312 kts | 227° |
| 2026-04-22 20:26 | 26.26108 | 126.60699 | 20829 ft | 312 kts | 227° |
| 2026-04-22 20:26 | 26.24520 | 126.59050 | 20836 ft | 312 kts | 227° |
| 2026-04-22 20:26 | 26.22931 | 126.57404 | 20832 ft | 312 kts | 227° |
| 2026-04-22 20:27 | 26.21341 | 126.55759 | 20833 ft | 312 kts | 227° |
| 2026-04-22 20:27 | 26.19743 | 126.54107 | 20837 ft | 313 kts | 227° |
| 2026-04-22 20:27 | 26.18146 | 126.52459 | 20829 ft | 313 kts | 226° |
| 2026-04-22 20:27 | 26.16562 | 126.50823 | 20830 ft | 313 kts | 226° |
| 2026-04-22 20:28 | 26.14953 | 126.49163 | 20840 ft | 313 kts | 226° |
| 2026-04-22 20:28 | 26.13895 | 126.48072 | 20837 ft | 313 kts | 226° |
| 2026-04-22 20:28 | 26.11760 | 126.45871 | 20843 ft | 313 kts | 226° |
| 2026-04-22 20:28 | 26.10699 | 126.44778 | 20838 ft | 313 kts | 226° |
| 2026-04-22 20:29 | 26.09097 | 126.43128 | 20837 ft | 313 kts | 226° |
| 2026-04-22 20:29 | 26.07499 | 126.41483 | 20834 ft | 313 kts | 226° |
| 2026-04-22 20:29 | 26.05897 | 126.39834 | 20836 ft | 313 kts | 226° |
| 2026-04-22 20:29 | 26.04297 | 126.38188 | 20836 ft | 313 kts | 226° |
| 2026-04-22 20:30 | 26.02705 | 126.36550 | 20842 ft | 313 kts | 226° |
| 2026-04-22 20:30 | 26.00589 | 126.34375 | 20837 ft | 313 kts | 226° |
| 2026-04-22 20:30 | 25.99533 | 126.33289 | 20844 ft | 313 kts | 226° |
| 2026-04-22 20:30 | 25.97909 | 126.31621 | 20842 ft | 313 kts | 226° |
| 2026-04-22 20:31 | 25.96332 | 126.30000 | 20832 ft | 313 kts | 226° |
| 2026-04-22 20:31 | 25.94736 | 126.28362 | 20842 ft | 313 kts | 226° |
| 2026-04-22 20:31 | 25.93117 | 126.26701 | 20840 ft | 313 kts | 226° |
| 2026-04-22 20:31 | 25.91519 | 126.25062 | 20838 ft | 313 kts | 226° |
| 2026-04-22 20:32 | 25.89940 | 126.23442 | 20834 ft | 313 kts | 226° |
| 2026-04-22 20:32 | 25.88359 | 126.21822 | 20832 ft | 313 kts | 226° |
| 2026-04-22 20:32 | 25.86760 | 126.20183 | 20835 ft | 313 kts | 226° |
| 2026-04-22 20:32 | 25.85159 | 126.18543 | 20833 ft | 312 kts | 226° |
| 2026-04-22 20:33 | 25.83567 | 126.16913 | 20834 ft | 312 kts | 226° |
| 2026-04-22 20:33 | 25.81968 | 126.15276 | 20836 ft | 312 kts | 226° |
| 2026-04-22 20:33 | 25.80395 | 126.13667 | 20842 ft | 312 kts | 226° |
| 2026-04-22 20:33 | 25.78781 | 126.12016 | 20842 ft | 312 kts | 226° |
| 2026-04-22 20:34 | 25.77180 | 126.10379 | 20832 ft | 312 kts | 226° |
| 2026-04-22 20:34 | 25.75584 | 126.08749 | 20842 ft | 312 kts | 226° |
| 2026-04-22 20:34 | 25.74005 | 126.07136 | 20839 ft | 312 kts | 226° |
| 2026-04-22 20:34 | 25.72408 | 126.05505 | 20833 ft | 312 kts | 226° |
| 2026-04-22 20:35 | 25.70809 | 126.03872 | 20829 ft | 312 kts | 226° |
| 2026-04-22 20:35 | 25.69212 | 126.02242 | 20842 ft | 312 kts | 226° |
| 2026-04-22 20:35 | 25.67614 | 126.00612 | 20832 ft | 312 kts | 226° |
| 2026-04-22 20:35 | 25.66013 | 125.98979 | 20836 ft | 312 kts | 226° |
| 2026-04-22 20:36 | 25.64410 | 125.97346 | 20818 ft | 312 kts | 226° |
| 2026-04-22 20:36 | 25.62817 | 125.95722 | 20832 ft | 312 kts | 226° |
| 2026-04-22 20:36 | 25.61223 | 125.94099 | 20834 ft | 312 kts | 226° |
| 2026-04-22 20:36 | 25.59625 | 125.92473 | 20839 ft | 312 kts | 226° |
| 2026-04-22 20:37 | 25.58037 | 125.90856 | 20836 ft | 312 kts | 226° |
| 2026-04-22 20:37 | 25.56437 | 125.89229 | 20835 ft | 312 kts | 226° |
| 2026-04-22 20:37 | 25.54840 | 125.87604 | 20835 ft | 312 kts | 226° |
| 2026-04-22 20:37 | 25.53238 | 125.85975 | 20835 ft | 312 kts | 226° |
| 2026-04-22 20:38 | 25.51677 | 125.84389 | 20836 ft | 312 kts | 226° |
| 2026-04-22 20:38 | 25.50049 | 125.82736 | 20836 ft | 312 kts | 226° |
| 2026-04-22 20:38 | 25.48449 | 125.81111 | 20835 ft | 312 kts | 226° |
| 2026-04-22 20:38 | 25.46844 | 125.79481 | 20835 ft | 312 kts | 225° |
| 2026-04-22 20:39 | 25.45247 | 125.77861 | 20834 ft | 312 kts | 225° |
| 2026-04-22 20:39 | 25.43647 | 125.76238 | 20832 ft | 312 kts | 226° |
| 2026-04-22 20:39 | 25.42056 | 125.74625 | 20839 ft | 312 kts | 226° |
| 2026-04-22 20:39 | 25.40458 | 125.73006 | 20836 ft | 312 kts | 226° |
| 2026-04-22 20:40 | 25.38860 | 125.71387 | 20836 ft | 311 kts | 226° |
| 2026-04-22 20:40 | 25.37259 | 125.69765 | 20837 ft | 311 kts | 226° |
| 2026-04-22 20:40 | 25.35664 | 125.68149 | 20835 ft | 311 kts | 226° |
| 2026-04-22 20:40 | 25.34065 | 125.66532 | 20835 ft | 311 kts | 226° |
| 2026-04-22 20:41 | 25.32472 | 125.64920 | 20834 ft | 311 kts | 226° |
| 2026-04-22 20:41 | 25.30875 | 125.63305 | 20835 ft | 311 kts | 226° |
| 2026-04-22 20:41 | 25.29278 | 125.61691 | 20834 ft | 311 kts | 226° |
| 2026-04-22 20:41 | 25.27680 | 125.60076 | 20835 ft | 311 kts | 226° |
| 2026-04-22 20:42 | 25.26094 | 125.58474 | 20838 ft | 311 kts | 226° |
| 2026-04-22 20:42 | 25.24492 | 125.56856 | 20825 ft | 311 kts | 226° |
| 2026-04-22 20:42 | 25.22895 | 125.55244 | 20838 ft | 311 kts | 226° |
| 2026-04-22 20:42 | 25.21296 | 125.53630 | 20837 ft | 312 kts | 226° |
| 2026-04-22 20:43 | 25.19695 | 125.52015 | 20837 ft | 313 kts | 226° |
| 2026-04-22 20:43 | 25.18125 | 125.50432 | 20836 ft | 313 kts | 226° |
| 2026-04-22 20:43 | 25.16478 | 125.48773 | 20837 ft | 313 kts | 226° |
| 2026-04-22 20:43 | 25.14867 | 125.47149 | 20836 ft | 313 kts | 226° |
| 2026-04-22 20:44 | 25.13261 | 125.45532 | 20833 ft | 313 kts | 226° |
| 2026-04-22 20:44 | 25.11650 | 125.43910 | 20833 ft | 314 kts | 226° |
| 2026-04-22 20:44 | 25.10034 | 125.42283 | 20832 ft | 314 kts | 226° |
| 2026-04-22 20:44 | 25.08422 | 125.40661 | 20830 ft | 314 kts | 226° |
| 2026-04-22 20:45 | 25.06808 | 125.39039 | 20828 ft | 314 kts | 226° |
| 2026-04-22 20:45 | 25.05214 | 125.37436 | 20809 ft | 314 kts | 226° |
| 2026-04-22 20:45 | 25.03581 | 125.35795 | 20822 ft | 314 kts | 226° |
| 2026-04-22 20:45 | 25.01984 | 125.34191 | 20824 ft | 315 kts | 226° |
| 2026-04-22 20:46 | 24.98745 | 125.30939 | 20822 ft | 316 kts | 226° |
| 2026-04-22 20:46 | 24.97121 | 125.29310 | 20818 ft | 316 kts | 226° |
| 2026-04-22 20:46 | 24.95490 | 125.27674 | 20817 ft | 316 kts | 226° |
| 2026-04-22 20:47 | 24.93869 | 125.26049 | 20819 ft | 317 kts | 226° |
| 2026-04-22 20:47 | 24.92237 | 125.24413 | 20820 ft | 317 kts | 226° |
| 2026-04-22 20:47 | 24.90601 | 125.22775 | 20818 ft | 317 kts | 226° |
| 2026-04-22 20:47 | 24.88967 | 125.21137 | 20814 ft | 318 kts | 226° |
| 2026-04-22 20:48 | 24.87333 | 125.19501 | 20814 ft | 318 kts | 226° |
| 2026-04-22 20:48 | 24.85704 | 125.17872 | 20813 ft | 318 kts | 226° |
| 2026-04-22 20:48 | 24.84071 | 125.16231 | 20804 ft | 317 kts | 228° |
| 2026-04-22 20:48 | 24.82620 | 125.14426 | 20814 ft | 314 kts | 236° |
| 2026-04-22 20:49 | 24.81423 | 125.12426 | 20815 ft | 312 kts | 243° |
| 2026-04-22 20:49 | 24.80363 | 125.10337 | 20814 ft | 312 kts | 244° |
| 2026-04-22 20:49 | 24.79338 | 125.08245 | 20811 ft | 312 kts | 245° |
| 2026-04-22 20:49 | 24.78326 | 125.06131 | 20813 ft | 312 kts | 245° |
| 2026-04-22 20:50 | 24.77325 | 125.04014 | 20816 ft | 312 kts | 245° |
| 2026-04-22 20:50 | 24.76329 | 125.01891 | 20815 ft | 312 kts | 245° |
| 2026-04-22 20:50 | 24.75337 | 124.99771 | 20814 ft | 312 kts | 245° |
| 2026-04-22 20:50 | 24.74345 | 124.97649 | 20820 ft | 312 kts | 245° |
| 2026-04-22 20:51 | 24.73355 | 124.95528 | 20819 ft | 312 kts | 245° |
| 2026-04-22 20:51 | 24.72368 | 124.93413 | 20819 ft | 312 kts | 245° |
| 2026-04-22 20:51 | 24.71374 | 124.91284 | 20822 ft | 312 kts | 245° |
| 2026-04-22 20:51 | 24.70383 | 124.89161 | 20820 ft | 312 kts | 245° |
| 2026-04-22 20:52 | 24.69393 | 124.87042 | 20825 ft | 312 kts | 245° |
| 2026-04-22 20:52 | 24.68395 | 124.84908 | 20821 ft | 312 kts | 245° |
| 2026-04-22 20:52 | 24.67402 | 124.82785 | 20815 ft | 312 kts | 245° |
| 2026-04-22 20:52 | 24.66408 | 124.80660 | 20817 ft | 312 kts | 245° |
| 2026-04-22 20:53 | 24.65417 | 124.78544 | 20823 ft | 312 kts | 245° |
| 2026-04-22 20:53 | 24.64420 | 124.76417 | 20822 ft | 312 kts | 245° |
| 2026-04-22 20:53 | 24.63427 | 124.74298 | 20824 ft | 313 kts | 245° |
| 2026-04-22 20:53 | 24.62429 | 124.72169 | 20828 ft | 313 kts | 245° |
| 2026-04-22 20:54 | 24.61430 | 124.70040 | 20823 ft | 313 kts | 245° |
| 2026-04-22 20:54 | 24.60434 | 124.67919 | 20819 ft | 313 kts | 245° |
| 2026-04-22 20:54 | 24.59438 | 124.65799 | 20821 ft | 313 kts | 245° |
| 2026-04-22 20:54 | 24.58441 | 124.63677 | 20824 ft | 313 kts | 245° |
| 2026-04-22 20:55 | 24.57441 | 124.61550 | 20822 ft | 313 kts | 245° |
| 2026-04-22 20:55 | 24.56441 | 124.59425 | 20822 ft | 313 kts | 245° |
| 2026-04-22 20:55 | 24.55443 | 124.57304 | 20819 ft | 313 kts | 245° |
| 2026-04-22 20:55 | 24.54442 | 124.55178 | 20814 ft | 313 kts | 245° |
| 2026-04-22 20:56 | 24.53444 | 124.53060 | 20814 ft | 313 kts | 245° |
| 2026-04-22 20:56 | 24.52444 | 124.50939 | 20807 ft | 313 kts | 245° |
| 2026-04-22 20:56 | 24.51443 | 124.48816 | 20791 ft | 313 kts | 245° |
| 2026-04-22 20:56 | 24.50441 | 124.46695 | 20804 ft | 313 kts | 246° |
| 2026-04-22 20:57 | 24.49450 | 124.44595 | 20797 ft | 313 kts | 246° |
| 2026-04-22 20:57 | 24.48448 | 124.42474 | 20799 ft | 313 kts | 246° |
| 2026-04-22 20:57 | 24.47432 | 124.40323 | 20791 ft | 313 kts | 245° |
| 2026-04-22 20:57 | 24.46443 | 124.38231 | 20802 ft | 313 kts | 245° |
| 2026-04-22 20:58 | 24.45439 | 124.36109 | 20786 ft | 313 kts | 245° |
| 2026-04-22 20:58 | 24.44437 | 124.33991 | 20786 ft | 313 kts | 245° |
| 2026-04-22 20:58 | 24.43374 | 124.31898 | 20777 ft | 316 kts | 238° |
| 2026-04-22 20:58 | 24.41738 | 124.30259 | 20780 ft | 326 kts | 215° |
| 2026-04-22 20:59 | 24.39543 | 124.29494 | 20788 ft | 340 kts | 190° |
| 2026-04-22 20:59 | 24.37175 | 124.29855 | 20785 ft | 354 kts | 164° |
| 2026-04-22 20:59 | 24.35080 | 124.31325 | 20782 ft | 365 kts | 138° |
| 2026-04-22 20:59 | 24.33677 | 124.33662 | 20788 ft | 372 kts | 112° |
| 2026-04-22 21:00 | 24.33240 | 124.36449 | 20788 ft | 373 kts | 86° |
| 2026-04-22 21:00 | 24.33852 | 124.39175 | 20798 ft | 368 kts | 60° |
| 2026-04-22 21:00 | 24.35370 | 124.41352 | 20799 ft | 359 kts | 38° |
| 2026-04-22 21:00 | 24.37172 | 124.43261 | 20807 ft | 362 kts | 45° |
| 2026-04-22 21:01 | 24.38684 | 124.45487 | 20807 ft | 366 kts | 53° |
| 2026-04-22 21:01 | 24.40007 | 124.47886 | 20795 ft | 368 kts | 57° |
| 2026-04-22 21:01 | 24.41241 | 124.50346 | 20809 ft | 369 kts | 59° |
| 2026-04-22 21:01 | 24.42438 | 124.52837 | 20811 ft | 369 kts | 60° |
| 2026-04-22 21:02 | 24.43619 | 124.55342 | 20811 ft | 369 kts | 60° |
| 2026-04-22 21:02 | 24.44788 | 124.57843 | 20810 ft | 369 kts | 60° |
| 2026-04-22 21:02 | 24.45938 | 124.60311 | 20813 ft | 370 kts | 60° |
| 2026-04-22 21:02 | 24.47125 | 124.62866 | 20825 ft | 370 kts | 60° |
| 2026-04-22 21:03 | 24.48295 | 124.65386 | 20829 ft | 370 kts | 60° |
| 2026-04-22 21:03 | 24.49460 | 124.67897 | 20822 ft | 370 kts | 60° |
| 2026-04-22 21:03 | 24.50631 | 124.70423 | 20821 ft | 371 kts | 60° |
| 2026-04-22 21:03 | 24.51800 | 124.72944 | 20824 ft | 371 kts | 60° |
| 2026-04-22 21:04 | 24.52970 | 124.75471 | 20824 ft | 371 kts | 60° |
| 2026-04-22 21:04 | 24.54138 | 124.77995 | 20827 ft | 370 kts | 60° |
| 2026-04-22 21:04 | 24.55304 | 124.80516 | 20829 ft | 371 kts | 60° |
| 2026-04-22 21:04 | 24.56473 | 124.83044 | 20829 ft | 371 kts | 60° |
| 2026-04-22 21:05 | 24.57638 | 124.85566 | 20828 ft | 371 kts | 60° |
| 2026-04-22 21:05 | 24.58805 | 124.88094 | 20825 ft | 371 kts | 60° |
| 2026-04-22 21:05 | 24.59971 | 124.90619 | 20828 ft | 371 kts | 60° |
| 2026-04-22 21:05 | 24.61136 | 124.93145 | 20825 ft | 371 kts | 60° |
| 2026-04-22 21:06 | 24.62303 | 124.95676 | 20818 ft | 371 kts | 60° |
| 2026-04-22 21:06 | 24.63461 | 124.98188 | 20818 ft | 371 kts | 60° |
| 2026-04-22 21:06 | 24.64627 | 125.00720 | 20829 ft | 371 kts | 60° |
| 2026-04-22 21:06 | 24.65791 | 125.03248 | 20819 ft | 372 kts | 60° |
| 2026-04-22 21:07 | 24.66956 | 125.05781 | 20819 ft | 372 kts | 60° |
| 2026-04-22 21:07 | 24.68124 | 125.08320 | 20819 ft | 372 kts | 60° |
| 2026-04-22 21:07 | 24.69290 | 125.10858 | 20819 ft | 372 kts | 60° |
| 2026-04-22 21:07 | 24.70444 | 125.13370 | 20815 ft | 372 kts | 61° |
| 2026-04-22 21:08 | 24.71626 | 125.15944 | 20817 ft | 372 kts | 61° |
| 2026-04-22 21:08 | 24.72791 | 125.18483 | 20814 ft | 372 kts | 61° |
| 2026-04-22 21:08 | 24.73961 | 125.21036 | 20816 ft | 372 kts | 61° |
| 2026-04-22 21:08 | 24.75125 | 125.23574 | 20810 ft | 372 kts | 61° |
| 2026-04-22 21:09 | 24.76270 | 125.26122 | 20808 ft | 373 kts | 64° |
| 2026-04-22 21:09 | 24.77027 | 125.28530 | 20814 ft | 375 kts | 74° |
| 2026-04-22 21:09 | 24.77504 | 125.31310 | 20816 ft | 376 kts | 83° |
| 2026-04-22 21:09 | 24.77667 | 125.34177 | 20816 ft | 376 kts | 88° |
| 2026-04-22 21:10 | 24.77732 | 125.37097 | 20817 ft | 376 kts | 89° |
| 2026-04-22 21:10 | 24.77764 | 125.39932 | 20809 ft | 376 kts | 90° |
| 2026-04-22 21:10 | 24.77781 | 125.42841 | 20816 ft | 376 kts | 90° |
| 2026-04-22 21:10 | 24.77791 | 125.45724 | 20835 ft | 376 kts | 90° |
| 2026-04-22 21:11 | 24.77797 | 125.48571 | 20820 ft | 376 kts | 90° |
| 2026-04-22 21:11 | 24.77803 | 125.51482 | 20818 ft | 376 kts | 90° |
| 2026-04-22 21:11 | 24.77807 | 125.54327 | 20824 ft | 376 kts | 90° |
| 2026-04-22 21:11 | 24.77811 | 125.57202 | 20824 ft | 376 kts | 90° |
| 2026-04-22 21:12 | 24.77813 | 125.59148 | 20831 ft | 376 kts | 90° |
| 2026-04-22 21:12 | 24.77816 | 125.62936 | 20837 ft | 376 kts | 90° |
| 2026-04-22 21:12 | 24.77818 | 125.65792 | 20839 ft | 376 kts | 90° |
| 2026-04-22 21:12 | 24.77819 | 125.68682 | 20842 ft | 375 kts | 90° |
| 2026-04-22 21:13 | 24.77819 | 125.71557 | 20843 ft | 375 kts | 90° |
| 2026-04-22 21:13 | 24.77820 | 125.74423 | 20838 ft | 375 kts | 90° |
| 2026-04-22 21:13 | 24.77819 | 125.77302 | 20842 ft | 375 kts | 91° |
| 2026-04-22 21:13 | 24.77818 | 125.80172 | 20844 ft | 375 kts | 91° |
| 2026-04-22 21:14 | 24.77816 | 125.83042 | 20841 ft | 375 kts | 91° |
| 2026-04-22 21:14 | 24.77814 | 125.85912 | 20844 ft | 375 kts | 91° |
| 2026-04-22 21:14 | 24.77812 | 125.88779 | 20844 ft | 375 kts | 91° |
| 2026-04-22 21:14 | 24.77808 | 125.91641 | 20844 ft | 375 kts | 91° |
| 2026-04-22 21:15 | 24.77805 | 125.94506 | 20847 ft | 375 kts | 91° |
| 2026-04-22 21:15 | 24.77802 | 125.96451 | 20850 ft | 375 kts | 91° |
| 2026-04-22 21:15 | 24.77797 | 125.99279 | 20849 ft | 375 kts | 91° |
| 2026-04-22 21:15 | 24.77792 | 126.02137 | 20849 ft | 374 kts | 91° |
| 2026-04-22 21:16 | 24.77786 | 126.05000 | 20848 ft | 374 kts | 91° |
| 2026-04-22 21:16 | 24.77779 | 126.07865 | 20847 ft | 374 kts | 91° |
| 2026-04-22 21:16 | 24.77772 | 126.10735 | 20846 ft | 374 kts | 91° |
| 2026-04-22 21:16 | 24.77765 | 126.13594 | 20847 ft | 374 kts | 91° |
| 2026-04-22 21:17 | 24.77757 | 126.16445 | 20848 ft | 374 kts | 91° |
| 2026-04-22 21:17 | 24.77748 | 126.19308 | 20844 ft | 374 kts | 91° |
| 2026-04-22 21:17 | 24.77739 | 126.22181 | 20845 ft | 374 kts | 91° |
| 2026-04-22 21:17 | 24.77729 | 126.25041 | 20847 ft | 374 kts | 91° |
| 2026-04-22 21:18 | 24.77719 | 126.27905 | 20848 ft | 374 kts | 91° |
| 2026-04-22 21:18 | 24.77708 | 126.30772 | 20852 ft | 374 kts | 91° |
| 2026-04-22 21:18 | 24.77697 | 126.33627 | 20848 ft | 374 kts | 91° |
| 2026-04-22 21:18 | 24.77685 | 126.36492 | 20851 ft | 374 kts | 91° |
| 2026-04-22 21:19 | 24.77673 | 126.39357 | 20861 ft | 374 kts | 91° |
| 2026-04-22 21:19 | 24.77660 | 126.42220 | 20853 ft | 375 kts | 91° |
| 2026-04-22 21:19 | 24.77646 | 126.45094 | 20851 ft | 375 kts | 91° |
| 2026-04-22 21:19 | 24.77632 | 126.47967 | 20855 ft | 375 kts | 91° |
| 2026-04-22 21:20 | 24.77617 | 126.50832 | 20853 ft | 375 kts | 91° |
| 2026-04-22 21:20 | 24.77602 | 126.53698 | 20855 ft | 374 kts | 91° |
| 2026-04-22 21:20 | 24.77586 | 126.56561 | 20858 ft | 374 kts | 91° |
| 2026-04-22 21:20 | 24.77570 | 126.59425 | 20858 ft | 374 kts | 91° |
| 2026-04-22 21:21 | 24.77553 | 126.62292 | 20858 ft | 374 kts | 91° |
| 2026-04-22 21:21 | 24.77536 | 126.65153 | 20856 ft | 374 kts | 91° |
| 2026-04-22 21:21 | 24.77518 | 126.67950 | 20858 ft | 374 kts | 91° |
| 2026-04-22 21:21 | 24.77499 | 126.70880 | 20858 ft | 374 kts | 91° |
| 2026-04-22 21:22 | 24.77480 | 126.73740 | 20858 ft | 374 kts | 91° |
| 2026-04-22 21:22 | 24.77461 | 126.76587 | 20856 ft | 374 kts | 91° |
| 2026-04-22 21:22 | 24.77440 | 126.79457 | 20860 ft | 374 kts | 91° |
| 2026-04-22 21:22 | 24.77420 | 126.82280 | 20849 ft | 356 kts | 91° |
| 2026-04-22 21:23 | 24.77401 | 126.84910 | 20853 ft | 335 kts | 91° |
| 2026-04-22 21:23 | 24.77381 | 126.87454 | 21187 ft | 327 kts | 91° |
| 2026-04-22 21:23 | 24.77361 | 126.89972 | 21172 ft | 337 kts | 91° |
| 2026-04-22 21:23 | 24.77340 | 126.92581 | 20546 ft | 338 kts | 91° |
| 2026-04-22 21:24 | 24.77319 | 126.95134 | 20089 ft | 328 kts | 91° |
| 2026-04-22 21:24 | 24.77298 | 126.97620 | 19634 ft | 324 kts | 91° |
| 2026-04-22 21:24 | 24.77277 | 127.00094 | 19186 ft | 322 kts | 91° |
| 2026-04-22 21:24 | 24.77255 | 127.02547 | 18756 ft | 319 kts | 91° |
| 2026-04-22 21:25 | 24.77234 | 127.04974 | 18336 ft | 317 kts | 91° |
| 2026-04-22 21:25 | 24.77212 | 127.07412 | 17895 ft | 321 kts | 91° |
| 2026-04-22 21:25 | 24.77190 | 127.09863 | 17416 ft | 318 kts | 91° |
| 2026-04-22 21:25 | 24.77168 | 127.12282 | 16973 ft | 315 kts | 91° |
| 2026-04-22 21:26 | 24.77145 | 127.14683 | 16531 ft | 313 kts | 91° |
| 2026-04-22 21:26 | 24.77122 | 127.17063 | 16102 ft | 310 kts | 92° |
| 2026-04-22 21:26 | 24.77099 | 127.19430 | 15673 ft | 307 kts | 92° |
| 2026-04-22 21:26 | 24.77076 | 127.21764 | 15262 ft | 305 kts | 92° |
| 2026-04-22 21:27 | 24.77052 | 127.24084 | 14855 ft | 303 kts | 92° |
| 2026-04-22 21:27 | 24.77029 | 127.26391 | 14455 ft | 299 kts | 92° |
| 2026-04-22 21:27 | 24.77005 | 127.28638 | 14070 ft | 298 kts | 92° |
| 2026-04-22 21:27 | 24.76981 | 127.30916 | 13693 ft | 297 kts | 93° |
| 2026-04-22 21:28 | 24.76957 | 127.33167 | 13258 ft | 289 kts | 93° |
| 2026-04-22 21:28 | 24.76934 | 127.35353 | 12824 ft | 284 kts | 93° |
| 2026-04-22 21:28 | 24.76909 | 127.37523 | 12396 ft | 282 kts | 93° |
| 2026-04-22 21:28 | 24.76885 | 127.39666 | 11975 ft | 279 kts | 93° |
| 2026-04-22 21:29 | 24.76861 | 127.41794 | 11568 ft | 277 kts | 94° |
| 2026-04-22 21:29 | 24.76837 | 127.43883 | 11162 ft | 269 kts | 94° |
| 2026-04-22 21:29 | 24.76813 | 127.45932 | 10762 ft | 266 kts | 94° |
| 2026-04-22 21:29 | 24.76789 | 127.47956 | 10344 ft | 263 kts | 94° |
| 2026-04-22 21:30 | 24.76765 | 127.49962 | 9978 ft | 261 kts | 94° |
| 2026-04-22 21:30 | 24.76741 | 127.51941 | 9577 ft | 258 kts | 94° |
| 2026-04-22 21:30 | 24.76718 | 127.53905 | 9148 ft | 253 kts | 94° |
| 2026-04-22 21:30 | 24.76656 | 127.55802 | 8718 ft | 244 kts | 100° |
| 2026-04-22 21:31 | 24.76355 | 127.57599 | 8276 ft | 235 kts | 110° |
| 2026-04-22 21:31 | 24.75874 | 127.59310 | 7849 ft | 233 kts | 113° |
| 2026-04-22 21:31 | 24.75360 | 127.60987 | 7465 ft | 231 kts | 114° |
| 2026-04-22 21:31 | 24.74848 | 127.62659 | 7157 ft | 231 kts | 114° |
| 2026-04-22 21:32 | 24.74345 | 127.64320 | 6840 ft | 227 kts | 114° |
| 2026-04-22 21:32 | 24.73849 | 127.65966 | 6531 ft | 226 kts | 114° |
| 2026-04-22 21:32 | 24.73362 | 127.67591 | 6234 ft | 225 kts | 114° |
| 2026-04-22 21:32 | 24.72874 | 127.69221 | 5908 ft | 223 kts | 114° |
| 2026-04-22 21:33 | 24.72388 | 127.70847 | 5589 ft | 223 kts | 114° |
| 2026-04-22 21:33 | 24.71907 | 127.72459 | 5271 ft | 222 kts | 113° |
| 2026-04-22 21:33 | 24.71426 | 127.74073 | 4970 ft | 219 kts | 114° |
| 2026-04-22 21:33 | 24.70952 | 127.75662 | 4664 ft | 219 kts | 114° |
| 2026-04-22 21:34 | 24.70480 | 127.77244 | 4350 ft | 216 kts | 114° |
| 2026-04-22 21:34 | 24.70023 | 127.78782 | 4032 ft | 208 kts | 113° |
| 2026-04-22 21:34 | 24.69583 | 127.80256 | 3691 ft | 203 kts | 114° |
| 2026-04-22 21:34 | 24.69149 | 127.81712 | 3338 ft | 198 kts | 114° |
| 2026-04-22 21:35 | 24.68711 | 127.83171 | 2977 ft | 198 kts | 114° |
| 2026-04-22 21:35 | 24.68283 | 127.84598 | 2637 ft | 196 kts | 115° |
| 2026-04-22 21:35 | 24.67860 | 127.86010 | 2301 ft | 193 kts | 114° |
| 2026-04-22 21:35 | 24.67449 | 127.87385 | 2047 ft | 187 kts | 115° |
| 2026-04-22 21:36 | 24.67046 | 127.88729 | 2002 ft | 188 kts | 114° |
| 2026-04-22 21:36 | 24.66632 | 127.90104 | 1999 ft | 190 kts | 115° |
| 2026-04-22 21:36 | 24.66214 | 127.91493 | 1999 ft | 193 kts | 116° |
| 2026-04-22 21:36 | 24.65791 | 127.92899 | 2006 ft | 194 kts | 114° |
| 2026-04-22 21:37 | 24.65366 | 127.94323 | 1997 ft | 191 kts | 115° |
| 2026-04-22 21:37 | 24.64953 | 127.95704 | 1999 ft | 190 kts | 114° |
| 2026-04-22 21:37 | 24.64547 | 127.97059 | 2006 ft | 188 kts | 115° |
| 2026-04-22 21:37 | 24.64132 | 127.98440 | 2006 ft | 188 kts | 115° |
| 2026-04-22 21:38 | 24.63733 | 127.99771 | 2001 ft | 185 kts | 114° |
| 2026-04-22 21:38 | 24.63326 | 128.01123 | 1997 ft | 185 kts | 115° |
| 2026-04-22 21:38 | 24.62927 | 128.02451 | 2000 ft | 184 kts | 114° |
| 2026-04-22 21:38 | 24.62517 | 128.03802 | 2010 ft | 189 kts | 115° |
| 2026-04-22 21:39 | 24.62107 | 128.05165 | 2006 ft | 185 kts | 114° |
| 2026-04-22 21:39 | 24.61945 | 128.06590 | 1997 ft | 197 kts | 85° |
| 2026-04-22 21:39 | 24.62494 | 128.07955 | 1994 ft | 196 kts | 58° |
| 2026-04-22 21:39 | 24.63360 | 128.09155 | 2000 ft | 202 kts | 50° |
| 2026-04-22 21:40 | 24.64298 | 128.10305 | 2006 ft | 206 kts | 50° |
| 2026-04-22 21:40 | 24.65265 | 128.11474 | 1999 ft | 204 kts | 50° |
| 2026-04-22 21:40 | 24.66194 | 128.12611 | 2009 ft | 201 kts | 51° |
| 2026-04-22 21:40 | 24.67103 | 128.13742 | 2002 ft | 197 kts | 50° |
| 2026-04-22 21:41 | 24.68008 | 128.14884 | 2008 ft | 199 kts | 50° |
| 2026-04-22 21:41 | 24.68961 | 128.16016 | 2003 ft | 204 kts | 41° |
| 2026-04-22 21:41 | 24.70125 | 128.16914 | 2001 ft | 206 kts | 26° |
| 2026-04-22 21:41 | 24.71492 | 128.17180 | 2001 ft | 199 kts | 346° |
| 2026-04-22 21:42 | 24.72663 | 128.16507 | 2004 ft | 186 kts | 302° |
| 2026-04-22 21:42 | 24.73104 | 128.15254 | 2010 ft | 174 kts | 273° |
| 2026-04-22 21:42 | 24.73168 | 128.13910 | 2012 ft | 177 kts | 266° |
| 2026-04-22 21:42 | 24.73165 | 128.12556 | 2003 ft | 177 kts | 265° |
| 2026-04-22 21:43 | 24.73162 | 128.11204 | 2007 ft | 177 kts | 264° |
| 2026-04-22 21:43 | 24.73185 | 128.09878 | 2001 ft | 171 kts | 265° |
| 2026-04-22 21:43 | 24.73212 | 128.08563 | 2006 ft | 174 kts | 265° |
| 2026-04-22 21:43 | 24.73226 | 128.07244 | 2006 ft | 173 kts | 265° |
| 2026-04-22 21:44 | 24.73222 | 128.05895 | 2004 ft | 177 kts | 265° |
| 2026-04-22 21:44 | 24.73224 | 128.04573 | 2009 ft | 172 kts | 264° |
| 2026-04-22 21:44 | 24.73239 | 128.03249 | 2001 ft | 171 kts | 265° |
| 2026-04-22 21:44 | 24.73256 | 128.01927 | 1993 ft | 178 kts | 265° |
| 2026-04-22 21:45 | 24.73272 | 128.00596 | 1992 ft | 173 kts | 265° |
| 2026-04-22 21:45 | 24.73291 | 127.99245 | 2005 ft | 176 kts | 265° |
| 2026-04-22 21:45 | 24.73309 | 127.97945 | 2013 ft | 171 kts | 265° |
| 2026-04-22 21:45 | 24.73329 | 127.96633 | 2000 ft | 172 kts | 265° |
| 2026-04-22 21:46 | 24.73348 | 127.95307 | 1997 ft | 171 kts | 266° |
| 2026-04-22 21:46 | 24.73352 | 127.93988 | 2003 ft | 171 kts | 265° |
| 2026-04-22 21:46 | 24.73350 | 127.92724 | 1994 ft | 165 kts | 264° |
| 2026-04-22 21:46 | 24.73365 | 127.91455 | 2006 ft | 167 kts | 266° |
| 2026-04-22 21:47 | 24.73371 | 127.90168 | 2004 ft | 166 kts | 264° |
| 2026-04-22 21:47 | 24.73384 | 127.88909 | 1998 ft | 170 kts | 265° |
| 2026-04-22 21:47 | 24.73393 | 127.87596 | 2001 ft | 171 kts | 264° |
| 2026-04-22 21:47 | 24.73405 | 127.86284 | 1999 ft | 172 kts | 265° |
| 2026-04-22 21:48 | 24.73422 | 127.84972 | 2003 ft | 169 kts | 265° |
| 2026-04-22 21:48 | 24.73442 | 127.83698 | 2002 ft | 168 kts | 265° |
| 2026-04-22 21:48 | 24.73462 | 127.82404 | 2002 ft | 170 kts | 265° |
| 2026-04-22 21:48 | 24.73482 | 127.81104 | 2000 ft | 171 kts | 265° |
| 2026-04-22 21:49 | 24.73510 | 127.79798 | 2001 ft | 171 kts | 265° |
| 2026-04-22 21:49 | 24.73541 | 127.78495 | 2001 ft | 170 kts | 265° |
| 2026-04-22 21:49 | 24.73593 | 127.77187 | 2000 ft | 174 kts | 277° |
| 2026-04-22 21:49 | 24.74310 | 127.76093 | 1999 ft | 191 kts | 324° |
| 2026-04-22 21:50 | 24.75632 | 127.75775 | 2006 ft | 201 kts | 2° |
| 2026-04-22 21:50 | 24.76966 | 127.76349 | 2019 ft | 219 kts | 37° |
| 2026-04-22 21:50 | 24.77965 | 127.77611 | 1964 ft | 221 kts | 60° |
| 2026-04-22 21:50 | 24.78652 | 127.79094 | 2082 ft | 217 kts | 70° |
| 2026-04-22 21:51 | 24.79234 | 127.80646 | 2364 ft | 220 kts | 72° |
| 2026-04-22 21:51 | 24.79783 | 127.82227 | 2655 ft | 222 kts | 72° |
| 2026-04-22 21:51 | 24.80323 | 127.83829 | 2939 ft | 225 kts | 72° |
| 2026-04-22 21:52 | 24.81395 | 127.87066 | 3517 ft | 224 kts | 72° |
| 2026-04-22 21:52 | 24.81930 | 127.88693 | 3798 ft | 226 kts | 72° |
| 2026-04-22 21:52 | 24.82462 | 127.90315 | 4095 ft | 227 kts | 72° |
| 2026-04-22 21:52 | 24.83004 | 127.91973 | 4397 ft | 230 kts | 71° |
| 2026-04-22 21:53 | 24.83548 | 127.93632 | 4716 ft | 232 kts | 72° |
| 2026-04-22 21:53 | 24.84094 | 127.95301 | 5002 ft | 232 kts | 71° |
| 2026-04-22 21:53 | 24.84656 | 127.97020 | 5334 ft | 242 kts | 71° |
| 2026-04-22 21:53 | 24.85229 | 127.98771 | 5700 ft | 243 kts | 71° |
| 2026-04-22 21:54 | 24.85804 | 128.00528 | 6063 ft | 245 kts | 72° |
| 2026-04-22 21:54 | 24.86379 | 128.02287 | 6417 ft | 245 kts | 72° |
| 2026-04-22 21:54 | 24.86957 | 128.04058 | 6758 ft | 246 kts | 72° |
| 2026-04-22 21:54 | 24.87536 | 128.05834 | 7107 ft | 248 kts | 72° |
| 2026-04-22 21:55 | 24.88120 | 128.07624 | 7465 ft | 248 kts | 72° |
| 2026-04-22 21:55 | 24.88705 | 128.09415 | 7818 ft | 250 kts | 72° |
| 2026-04-22 21:55 | 24.89291 | 128.11215 | 8173 ft | 251 kts | 72° |
| 2026-04-22 21:55 | 24.89883 | 128.13034 | 8546 ft | 253 kts | 72° |
| 2026-04-22 21:56 | 24.90478 | 128.14861 | 8924 ft | 254 kts | 72° |
| 2026-04-22 21:56 | 24.91077 | 128.16702 | 9308 ft | 256 kts | 72° |
| 2026-04-22 21:56 | 24.91677 | 128.18548 | 9700 ft | 256 kts | 72° |
| 2026-04-22 21:56 | 24.92278 | 128.20397 | 10052 ft | 258 kts | 72° |
| 2026-04-22 21:57 | 24.92882 | 128.22259 | 10412 ft | 259 kts | 72° |
| 2026-04-22 21:57 | 24.93500 | 128.24161 | 10798 ft | 270 kts | 71° |
| 2026-04-22 21:57 | 24.94142 | 128.26139 | 11226 ft | 276 kts | 71° |
| 2026-04-22 21:57 | 24.94792 | 128.28140 | 11668 ft | 278 kts | 71° |
| 2026-04-22 21:58 | 24.95436 | 128.30126 | 12109 ft | 281 kts | 71° |
| 2026-04-22 21:58 | 24.96101 | 128.32179 | 12574 ft | 283 kts | 71° |
| 2026-04-22 21:58 | 24.96762 | 128.34219 | 13034 ft | 288 kts | 71° |
| 2026-04-22 21:58 | 24.97436 | 128.36300 | 13523 ft | 289 kts | 70° |
| 2026-04-22 21:59 | 24.98113 | 128.38394 | 13969 ft | 292 kts | 70° |
| 2026-04-22 21:59 | 24.98797 | 128.40509 | 14391 ft | 294 kts | 70° |
| 2026-04-22 21:59 | 24.99486 | 128.42643 | 14850 ft | 296 kts | 70° |
| 2026-04-22 21:59 | 25.00177 | 128.44783 | 15304 ft | 298 kts | 70° |
| 2026-04-22 22:00 | 25.00874 | 128.46941 | 15763 ft | 299 kts | 70° |
| 2026-04-22 22:00 | 25.01574 | 128.49110 | 16232 ft | 300 kts | 69° |
| 2026-04-22 22:00 | 25.02272 | 128.51275 | 16698 ft | 301 kts | 69° |
| 2026-04-22 22:00 | 25.02973 | 128.53453 | 17172 ft | 301 kts | 69° |
| 2026-04-22 22:01 | 25.03676 | 128.55636 | 17652 ft | 302 kts | 69° |
| 2026-04-22 22:01 | 25.04376 | 128.57810 | 18118 ft | 302 kts | 69° |
| 2026-04-22 22:01 | 25.04842 | 128.59261 | 18394 ft | 302 kts | 69° |
| 2026-04-22 22:01 | 25.05777 | 128.62169 | 18886 ft | 304 kts | 69° |
| 2026-04-22 22:02 | 25.06250 | 128.63640 | 18954 ft | 312 kts | 69° |
| 2026-04-22 22:02 | 25.06998 | 128.65985 | 18996 ft | 324 kts | 69° |
| 2026-04-22 22:02 | 25.07722 | 128.68339 | 19007 ft | 335 kts | 70° |
| 2026-04-22 22:02 | 25.08478 | 128.70799 | 19004 ft | 344 kts | 70° |
| 2026-04-22 22:03 | 25.09258 | 128.73320 | 19007 ft | 349 kts | 70° |
| 2026-04-22 22:03 | 25.10045 | 128.75853 | 18996 ft | 348 kts | 70° |
| 2026-04-22 22:03 | 25.10832 | 128.78383 | 18994 ft | 348 kts | 70° |
| 2026-04-22 22:03 | 25.11617 | 128.80903 | 18994 ft | 348 kts | 70° |
| 2026-04-22 22:04 | 25.12401 | 128.83424 | 18998 ft | 348 kts | 70° |
| 2026-04-22 22:04 | 25.13186 | 128.85946 | 19002 ft | 348 kts | 70° |
| 2026-04-22 22:04 | 25.13969 | 128.88466 | 18983 ft | 348 kts | 70° |
| 2026-04-22 22:04 | 25.14754 | 128.90994 | 18889 ft | 347 kts | 70° |
| 2026-04-22 22:05 | 25.15536 | 128.93514 | 18874 ft | 347 kts | 70° |
| 2026-04-22 22:05 | 25.16317 | 128.96032 | 18883 ft | 347 kts | 70° |
| 2026-04-22 22:05 | 25.17097 | 128.98546 | 18890 ft | 347 kts | 70° |
| 2026-04-22 22:05 | 25.17878 | 129.01069 | 18887 ft | 347 kts | 70° |
| 2026-04-22 22:06 | 25.18659 | 129.03592 | 18892 ft | 347 kts | 70° |
| 2026-04-22 22:06 | 25.19441 | 129.06121 | 18884 ft | 347 kts | 70° |
| 2026-04-22 22:06 | 25.20219 | 129.08640 | 18890 ft | 347 kts | 70° |
| 2026-04-22 22:06 | 25.21001 | 129.11169 | 18885 ft | 347 kts | 70° |
| 2026-04-22 22:07 | 25.21778 | 129.13687 | 18883 ft | 347 kts | 69° |
| 2026-04-22 22:07 | 25.22556 | 129.16212 | 18886 ft | 347 kts | 69° |
| 2026-04-22 22:07 | 25.23334 | 129.18734 | 18883 ft | 347 kts | 69° |
| 2026-04-22 22:07 | 25.24114 | 129.21267 | 18884 ft | 347 kts | 69° |
| 2026-04-22 22:08 | 25.24888 | 129.23784 | 18889 ft | 347 kts | 69° |
| 2026-04-22 22:08 | 25.25664 | 129.26306 | 18889 ft | 347 kts | 70° |
| 2026-04-22 22:08 | 25.26439 | 129.28830 | 18888 ft | 347 kts | 70° |
| 2026-04-22 22:08 | 25.27215 | 129.31355 | 18888 ft | 347 kts | 70° |
| 2026-04-22 22:09 | 25.27990 | 129.33881 | 18886 ft | 347 kts | 69° |
| 2026-04-22 22:09 | 25.28764 | 129.36407 | 18882 ft | 347 kts | 70° |
| 2026-04-22 22:09 | 25.29537 | 129.38929 | 18881 ft | 347 kts | 70° |
| 2026-04-22 22:09 | 25.30312 | 129.41459 | 18888 ft | 347 kts | 70° |
| 2026-04-22 22:10 | 25.31083 | 129.43979 | 18887 ft | 347 kts | 70° |
| 2026-04-22 22:10 | 25.31856 | 129.46508 | 18887 ft | 347 kts | 70° |
| 2026-04-22 22:10 | 25.32628 | 129.49032 | 18893 ft | 347 kts | 70° |
| 2026-04-22 22:10 | 25.33393 | 129.51539 | 18895 ft | 348 kts | 70° |
| 2026-04-22 22:11 | 25.34167 | 129.54074 | 18891 ft | 348 kts | 70° |
| 2026-04-22 22:11 | 25.34935 | 129.56595 | 18892 ft | 348 kts | 70° |
| 2026-04-22 22:11 | 25.35707 | 129.59128 | 18882 ft | 348 kts | 70° |
| 2026-04-22 22:11 | 25.36477 | 129.61655 | 18891 ft | 348 kts | 70° |
| 2026-04-22 22:12 | 25.37243 | 129.64174 | 18897 ft | 348 kts | 70° |
| 2026-04-22 22:12 | 25.38018 | 129.66721 | 18894 ft | 348 kts | 70° |
| 2026-04-22 22:12 | 25.38788 | 129.69256 | 18889 ft | 348 kts | 70° |
| 2026-04-22 22:12 | 25.39555 | 129.71784 | 18892 ft | 348 kts | 70° |
| 2026-04-22 22:13 | 25.40324 | 129.74317 | 18893 ft | 348 kts | 70° |
| 2026-04-22 22:13 | 25.41094 | 129.76856 | 18891 ft | 348 kts | 70° |
| 2026-04-22 22:13 | 25.41861 | 129.79389 | 18891 ft | 348 kts | 70° |
| 2026-04-22 22:13 | 25.42630 | 129.81928 | 18884 ft | 347 kts | 70° |
| 2026-04-22 22:14 | 25.43395 | 129.84460 | 18884 ft | 348 kts | 70° |
| 2026-04-22 22:14 | 25.44162 | 129.86996 | 18897 ft | 348 kts | 70° |
| 2026-04-22 22:14 | 25.44931 | 129.89540 | 18903 ft | 349 kts | 70° |
| 2026-04-22 22:14 | 25.45699 | 129.92084 | 18893 ft | 349 kts | 70° |
| 2026-04-22 22:15 | 25.46469 | 129.94635 | 18896 ft | 349 kts | 70° |
| 2026-04-22 22:15 | 25.47237 | 129.97183 | 18891 ft | 349 kts | 70° |
| 2026-04-22 22:15 | 25.48004 | 129.99731 | 18899 ft | 349 kts | 70° |
| 2026-04-22 22:15 | 25.48775 | 130.02291 | 18896 ft | 349 kts | 70° |
| 2026-04-22 22:16 | 25.49540 | 130.04836 | 18894 ft | 348 kts | 70° |
| 2026-04-22 22:16 | 25.50303 | 130.07374 | 18897 ft | 349 kts | 70° |
| 2026-04-22 22:16 | 25.51071 | 130.09928 | 18896 ft | 349 kts | 70° |
| 2026-04-22 22:16 | 25.51836 | 130.12478 | 18892 ft | 349 kts | 70° |
| 2026-04-22 22:17 | 25.52600 | 130.15024 | 18896 ft | 349 kts | 70° |
| 2026-04-22 22:17 | 25.53363 | 130.17571 | 18900 ft | 349 kts | 70° |
| 2026-04-22 22:17 | 25.54127 | 130.20121 | 18895 ft | 348 kts | 70° |
| 2026-04-22 22:17 | 25.54891 | 130.22672 | 18894 ft | 349 kts | 70° |
| 2026-04-22 22:18 | 25.55651 | 130.25215 | 18896 ft | 349 kts | 70° |
| 2026-04-22 22:18 | 25.56414 | 130.27766 | 18899 ft | 349 kts | 70° |
| 2026-04-22 22:18 | 25.57183 | 130.30342 | 18898 ft | 349 kts | 70° |
| 2026-04-22 22:18 | 25.57948 | 130.32905 | 18891 ft | 349 kts | 70° |
| 2026-04-22 22:19 | 25.58698 | 130.35420 | 18902 ft | 349 kts | 70° |
| 2026-04-22 22:19 | 25.59471 | 130.38012 | 18898 ft | 349 kts | 70° |
| 2026-04-22 22:19 | 25.60231 | 130.40565 | 18900 ft | 349 kts | 70° |
| 2026-04-22 22:19 | 25.60979 | 130.43078 | 18901 ft | 349 kts | 70° |
| 2026-04-22 22:20 | 25.61754 | 130.45684 | 18897 ft | 349 kts | 70° |
| 2026-04-22 22:20 | 25.62502 | 130.48200 | 18894 ft | 349 kts | 70° |
| 2026-04-22 22:20 | 25.63257 | 130.50744 | 18897 ft | 347 kts | 70° |
| 2026-04-22 22:20 | 25.64008 | 130.53277 | 18895 ft | 348 kts | 70° |
| 2026-04-22 22:21 | 25.64764 | 130.55825 | 18898 ft | 348 kts | 70° |
| 2026-04-22 22:21 | 25.65519 | 130.58370 | 18893 ft | 348 kts | 71° |
| 2026-04-22 22:21 | 25.66274 | 130.60922 | 18899 ft | 347 kts | 71° |
| 2026-04-22 22:21 | 25.67027 | 130.63466 | 18911 ft | 347 kts | 71° |
| 2026-04-22 22:22 | 25.67782 | 130.66021 | 18901 ft | 350 kts | 71° |
| 2026-04-22 22:22 | 25.68541 | 130.68588 | 18903 ft | 350 kts | 71° |
| 2026-04-22 22:22 | 25.69296 | 130.71147 | 18896 ft | 350 kts | 71° |
| 2026-04-22 22:22 | 25.70051 | 130.73705 | 18897 ft | 350 kts | 71° |
| 2026-04-22 22:23 | 25.70808 | 130.76272 | 18898 ft | 350 kts | 71° |
| 2026-04-22 22:23 | 25.71564 | 130.78839 | 18898 ft | 350 kts | 71° |
| 2026-04-22 22:23 | 25.72317 | 130.81398 | 18896 ft | 350 kts | 71° |
| 2026-04-22 22:23 | 25.73073 | 130.83966 | 18902 ft | 350 kts | 71° |
| 2026-04-22 22:24 | 25.73826 | 130.86527 | 18904 ft | 350 kts | 71° |
| 2026-04-22 22:24 | 25.74579 | 130.89092 | 18890 ft | 350 kts | 71° |
| 2026-04-22 22:24 | 25.75334 | 130.91662 | 18904 ft | 349 kts | 71° |
| 2026-04-22 22:24 | 25.76079 | 130.94204 | 18895 ft | 348 kts | 71° |
| 2026-04-22 22:25 | 25.76831 | 130.96767 | 18900 ft | 348 kts | 71° |
| 2026-04-22 22:25 | 25.77577 | 130.99314 | 18907 ft | 348 kts | 71° |
| 2026-04-22 22:25 | 25.78323 | 131.01865 | 18910 ft | 350 kts | 71° |
| 2026-04-22 22:25 | 25.79079 | 131.04447 | 18902 ft | 350 kts | 71° |
| 2026-04-22 22:26 | 25.79829 | 131.07013 | 18899 ft | 350 kts | 71° |
| 2026-04-22 22:26 | 25.80579 | 131.09582 | 18896 ft | 350 kts | 71° |
| 2026-04-22 22:26 | 25.81327 | 131.12146 | 18896 ft | 350 kts | 71° |
| 2026-04-22 22:26 | 25.82074 | 131.14708 | 18903 ft | 349 kts | 71° |
| 2026-04-22 22:27 | 25.82834 | 131.17266 | 18886 ft | 349 kts | 68° |
| 2026-04-22 22:27 | 25.84027 | 131.19578 | 18911 ft | 343 kts | 45° |
| 2026-04-22 22:27 | 25.85889 | 131.21143 | 18894 ft | 333 kts | 19° |
| 2026-04-22 22:27 | 25.88087 | 131.21710 | 18906 ft | 320 kts | 355° |
| 2026-04-22 22:28 | 25.90225 | 131.21286 | 18909 ft | 308 kts | 332° |
| 2026-04-22 22:28 | 25.91986 | 131.20047 | 18908 ft | 298 kts | 312° |
| 2026-04-22 22:28 | 25.93200 | 131.18215 | 18897 ft | 291 kts | 292° |
| 2026-04-22 22:28 | 25.93775 | 131.16083 | 18903 ft | 288 kts | 279° |
| 2026-04-22 22:29 | 25.94106 | 131.13894 | 18901 ft | 288 kts | 277° |
| 2026-04-22 22:29 | 25.94372 | 131.11692 | 18891 ft | 287 kts | 276° |
| 2026-04-22 22:29 | 25.94595 | 131.09493 | 18902 ft | 287 kts | 275° |
| 2026-04-22 22:29 | 25.94793 | 131.07288 | 18900 ft | 287 kts | 274° |
| 2026-04-22 22:30 | 25.94973 | 131.05120 | 18896 ft | 287 kts | 274° |
| 2026-04-22 22:30 | 25.95151 | 131.02882 | 18894 ft | 286 kts | 274° |
| 2026-04-22 22:30 | 25.95319 | 131.00708 | 18899 ft | 286 kts | 274° |
| 2026-04-22 22:30 | 25.95486 | 130.98507 | 18905 ft | 286 kts | 274° |
| 2026-04-22 22:31 | 25.95652 | 130.96308 | 18893 ft | 287 kts | 274° |
| 2026-04-22 22:31 | 25.95817 | 130.94092 | 18904 ft | 287 kts | 274° |
| 2026-04-22 22:31 | 25.95981 | 130.91893 | 18894 ft | 287 kts | 274° |
| 2026-04-22 22:31 | 25.96144 | 130.89685 | 18894 ft | 285 kts | 273° |
| 2026-04-22 22:32 | 25.96307 | 130.87489 | 18900 ft | 285 kts | 273° |
| 2026-04-22 22:32 | 25.96469 | 130.85288 | 18894 ft | 286 kts | 273° |
| 2026-04-22 22:32 | 25.96631 | 130.83093 | 18891 ft | 285 kts | 273° |
| 2026-04-22 22:32 | 25.96792 | 130.80903 | 18898 ft | 285 kts | 273° |
| 2026-04-22 22:33 | 25.96953 | 130.78699 | 18903 ft | 285 kts | 273° |
| 2026-04-22 22:33 | 25.97114 | 130.76512 | 18898 ft | 285 kts | 273° |
| 2026-04-22 22:33 | 25.97275 | 130.74311 | 18891 ft | 285 kts | 273° |
| 2026-04-22 22:33 | 25.97436 | 130.72109 | 18892 ft | 285 kts | 273° |
| 2026-04-22 22:34 | 25.97596 | 130.69913 | 18894 ft | 285 kts | 273° |
| 2026-04-22 22:34 | 25.97756 | 130.67720 | 18902 ft | 285 kts | 273° |
| 2026-04-22 22:34 | 25.97916 | 130.65524 | 18890 ft | 285 kts | 273° |
| 2026-04-22 22:34 | 25.98076 | 130.63329 | 18906 ft | 285 kts | 273° |
| 2026-04-22 22:35 | 25.98236 | 130.61125 | 18902 ft | 285 kts | 273° |
| 2026-04-22 22:35 | 25.98395 | 130.58931 | 18900 ft | 285 kts | 273° |
| 2026-04-22 22:35 | 25.98554 | 130.56734 | 18893 ft | 285 kts | 273° |
| 2026-04-22 22:35 | 25.98713 | 130.54538 | 18891 ft | 285 kts | 273° |
| 2026-04-22 22:36 | 25.98871 | 130.52342 | 18894 ft | 285 kts | 273° |
| 2026-04-22 22:36 | 25.99030 | 130.50137 | 18891 ft | 285 kts | 273° |
| 2026-04-22 22:36 | 25.99188 | 130.47939 | 18898 ft | 285 kts | 273° |
| 2026-04-22 22:36 | 25.99345 | 130.45749 | 18892 ft | 284 kts | 273° |
| 2026-04-22 22:37 | 25.99502 | 130.43555 | 18894 ft | 284 kts | 273° |
| 2026-04-22 22:37 | 25.99659 | 130.41370 | 18895 ft | 284 kts | 273° |
| 2026-04-22 22:37 | 25.99815 | 130.39177 | 18894 ft | 284 kts | 273° |
| 2026-04-22 22:37 | 25.99971 | 130.36986 | 18894 ft | 285 kts | 273° |
| 2026-04-22 22:38 | 26.00127 | 130.34797 | 18889 ft | 284 kts | 273° |
| 2026-04-22 22:38 | 26.00284 | 130.32595 | 18897 ft | 285 kts | 273° |
| 2026-04-22 22:38 | 26.00440 | 130.30394 | 18891 ft | 285 kts | 273° |
| 2026-04-22 22:38 | 26.00595 | 130.28204 | 18897 ft | 285 kts | 273° |
| 2026-04-22 22:39 | 26.00750 | 130.25999 | 18898 ft | 285 kts | 273° |
| 2026-04-22 22:39 | 26.00905 | 130.23808 | 18889 ft | 285 kts | 273° |
| 2026-04-22 22:39 | 26.01060 | 130.21608 | 18888 ft | 285 kts | 273° |
| 2026-04-22 22:39 | 26.01213 | 130.19420 | 18885 ft | 285 kts | 273° |
| 2026-04-22 22:40 | 26.01367 | 130.17230 | 18893 ft | 285 kts | 273° |
| 2026-04-22 22:40 | 26.01521 | 130.15030 | 18888 ft | 285 kts | 273° |
| 2026-04-22 22:40 | 26.01674 | 130.12841 | 18895 ft | 285 kts | 273° |
| 2026-04-22 22:40 | 26.01826 | 130.10647 | 18888 ft | 285 kts | 273° |
| 2026-04-22 22:41 | 26.01979 | 130.08451 | 18897 ft | 285 kts | 273° |
| 2026-04-22 22:41 | 26.02129 | 130.06290 | 18894 ft | 285 kts | 273° |
| 2026-04-22 22:41 | 26.02281 | 130.04099 | 18898 ft | 285 kts | 273° |
| 2026-04-22 22:41 | 26.02433 | 130.01900 | 18884 ft | 284 kts | 273° |
| 2026-04-22 22:42 | 26.02583 | 129.99726 | 18886 ft | 283 kts | 273° |
| 2026-04-22 22:42 | 26.02733 | 129.97543 | 18890 ft | 283 kts | 273° |
| 2026-04-22 22:42 | 26.02883 | 129.95364 | 18891 ft | 283 kts | 273° |
| 2026-04-22 22:42 | 26.03033 | 129.93176 | 18888 ft | 283 kts | 273° |
| 2026-04-22 22:43 | 26.03182 | 129.90996 | 18888 ft | 283 kts | 273° |
| 2026-04-22 22:43 | 26.03332 | 129.88811 | 18889 ft | 283 kts | 273° |
| 2026-04-22 22:43 | 26.03480 | 129.86627 | 18887 ft | 283 kts | 273° |
| 2026-04-22 22:43 | 26.03628 | 129.84453 | 18886 ft | 283 kts | 273° |
| 2026-04-22 22:44 | 26.03776 | 129.82272 | 18897 ft | 283 kts | 273° |
| 2026-04-22 22:44 | 26.03925 | 129.80078 | 18889 ft | 283 kts | 273° |
| 2026-04-22 22:44 | 26.04072 | 129.77901 | 18888 ft | 283 kts | 273° |
| 2026-04-22 22:44 | 26.04219 | 129.75719 | 18886 ft | 283 kts | 273° |
| 2026-04-22 22:45 | 26.04366 | 129.73542 | 18886 ft | 283 kts | 273° |
| 2026-04-22 22:45 | 26.04512 | 129.71357 | 18887 ft | 283 kts | 273° |
| 2026-04-22 22:45 | 26.04658 | 129.69177 | 18887 ft | 283 kts | 273° |
| 2026-04-22 22:45 | 26.04804 | 129.66997 | 18887 ft | 283 kts | 273° |
| 2026-04-22 22:46 | 26.04949 | 129.64816 | 18885 ft | 283 kts | 273° |
| 2026-04-22 22:46 | 26.05095 | 129.62630 | 18886 ft | 283 kts | 273° |
| 2026-04-22 22:46 | 26.05191 | 129.61189 | 18887 ft | 283 kts | 273° |
| 2026-04-22 22:46 | 26.05336 | 129.59001 | 18886 ft | 283 kts | 273° |
| 2026-04-22 22:47 | 26.05480 | 129.56824 | 18890 ft | 284 kts | 273° |
| 2026-04-22 22:47 | 26.05625 | 129.54630 | 18883 ft | 284 kts | 273° |
| 2026-04-22 22:47 | 26.05768 | 129.52450 | 18883 ft | 284 kts | 273° |
| 2026-04-22 22:47 | 26.05912 | 129.50262 | 18883 ft | 284 kts | 273° |
| 2026-04-22 22:48 | 26.06056 | 129.48077 | 18883 ft | 284 kts | 273° |
| 2026-04-22 22:48 | 26.06198 | 129.45893 | 18883 ft | 284 kts | 273° |
| 2026-04-22 22:48 | 26.06341 | 129.43705 | 18872 ft | 284 kts | 273° |
| 2026-04-22 22:48 | 26.06484 | 129.41514 | 18882 ft | 284 kts | 273° |
| 2026-04-22 22:49 | 26.06627 | 129.39315 | 18891 ft | 284 kts | 273° |
| 2026-04-22 22:49 | 26.06769 | 129.37117 | 18880 ft | 284 kts | 273° |
| 2026-04-22 22:49 | 26.06911 | 129.34926 | 18884 ft | 285 kts | 273° |
| 2026-04-22 22:49 | 26.07053 | 129.32721 | 18882 ft | 286 kts | 273° |
| 2026-04-22 22:50 | 26.07195 | 129.30521 | 18877 ft | 286 kts | 273° |
| 2026-04-22 22:50 | 26.07337 | 129.28314 | 18878 ft | 286 kts | 273° |
| 2026-04-22 22:50 | 26.07478 | 129.26107 | 18879 ft | 286 kts | 273° |
| 2026-04-22 22:50 | 26.07619 | 129.23903 | 18884 ft | 286 kts | 273° |
| 2026-04-22 22:51 | 26.07760 | 129.21697 | 18883 ft | 286 kts | 273° |
| 2026-04-22 22:51 | 26.07900 | 129.19495 | 18878 ft | 286 kts | 273° |
| 2026-04-22 22:51 | 26.08040 | 129.17296 | 18878 ft | 286 kts | 273° |
| 2026-04-22 22:51 | 26.08180 | 129.15087 | 18878 ft | 286 kts | 273° |
| 2026-04-22 22:52 | 26.08320 | 129.12874 | 18880 ft | 286 kts | 273° |
| 2026-04-22 22:52 | 26.08458 | 129.10674 | 18881 ft | 286 kts | 273° |
| 2026-04-22 22:52 | 26.08597 | 129.08465 | 18878 ft | 286 kts | 273° |
| 2026-04-22 22:52 | 26.08736 | 129.06256 | 18878 ft | 286 kts | 273° |
| 2026-04-22 22:53 | 26.08874 | 129.04053 | 18877 ft | 286 kts | 273° |
| 2026-04-22 22:53 | 26.09011 | 129.01846 | 18878 ft | 286 kts | 273° |
| 2026-04-22 22:53 | 26.09149 | 128.99642 | 18878 ft | 286 kts | 273° |
| 2026-04-22 22:53 | 26.09286 | 128.97432 | 18878 ft | 286 kts | 273° |
| 2026-04-22 22:54 | 26.09423 | 128.95225 | 18879 ft | 286 kts | 273° |
| 2026-04-22 22:54 | 26.09559 | 128.93022 | 18872 ft | 286 kts | 273° |
| 2026-04-22 22:54 | 26.09695 | 128.90808 | 18874 ft | 286 kts | 273° |
| 2026-04-22 22:54 | 26.09831 | 128.88594 | 18878 ft | 286 kts | 274° |
| 2026-04-22 22:55 | 26.09967 | 128.86389 | 18875 ft | 285 kts | 274° |
| 2026-04-22 22:55 | 26.10101 | 128.84188 | 18875 ft | 285 kts | 274° |
| 2026-04-22 22:55 | 26.10369 | 128.79790 | 18875 ft | 286 kts | 274° |
| 2026-04-22 22:56 | 26.10504 | 128.77583 | 18875 ft | 286 kts | 274° |
| 2026-04-22 22:56 | 26.10637 | 128.75384 | 18875 ft | 286 kts | 274° |
| 2026-04-22 22:56 | 26.10770 | 128.73183 | 18870 ft | 285 kts | 274° |
| 2026-04-22 22:56 | 26.10903 | 128.70974 | 18870 ft | 285 kts | 274° |
| 2026-04-22 22:57 | 26.11033 | 128.68803 | 18870 ft | 285 kts | 274° |
| 2026-04-22 22:57 | 26.11167 | 128.66571 | 18870 ft | 285 kts | 273° |
| 2026-04-22 22:57 | 26.11296 | 128.64413 | 18864 ft | 277 kts | 274° |
| 2026-04-22 22:57 | 26.11422 | 128.62310 | 18864 ft | 271 kts | 274° |
| 2026-04-22 22:58 | 26.11545 | 128.60246 | 18859 ft | 260 kts | 274° |
| 2026-04-22 22:58 | 26.11663 | 128.58255 | 18865 ft | 258 kts | 274° |
| 2026-04-22 22:58 | 26.11781 | 128.56264 | 18867 ft | 259 kts | 274° |
| 2026-04-22 22:58 | 26.11899 | 128.54266 | 18876 ft | 258 kts | 274° |
| 2026-04-22 22:59 | 26.12019 | 128.52233 | 18279 ft | 268 kts | 274° |
| 2026-04-22 22:59 | 26.12138 | 128.50222 | 17924 ft | 255 kts | 273° |
| 2026-04-22 22:59 | 26.12252 | 128.48304 | 17516 ft | 242 kts | 273° |
| 2026-04-22 22:59 | 26.12361 | 128.46457 | 17115 ft | 238 kts | 273° |
| 2026-04-22 23:00 | 26.12468 | 128.44620 | 16718 ft | 237 kts | 272° |
| 2026-04-22 23:00 | 26.12576 | 128.42796 | 16341 ft | 235 kts | 272° |
| 2026-04-22 23:00 | 26.12681 | 128.40994 | 15957 ft | 233 kts | 272° |
| 2026-04-22 23:00 | 26.12784 | 128.39203 | 15582 ft | 232 kts | 272° |
| 2026-04-22 23:01 | 26.12888 | 128.37410 | 15208 ft | 231 kts | 271° |
| 2026-04-22 23:01 | 26.12990 | 128.35637 | 14851 ft | 230 kts | 271° |
| 2026-04-22 23:01 | 26.13092 | 128.33866 | 14500 ft | 228 kts | 271° |
| 2026-04-22 23:01 | 26.13193 | 128.32108 | 14155 ft | 227 kts | 271° |
| 2026-04-22 23:02 | 26.13294 | 128.30360 | 13816 ft | 225 kts | 271° |
| 2026-04-22 23:02 | 26.13393 | 128.28627 | 13446 ft | 224 kts | 270° |
| 2026-04-22 23:02 | 26.13491 | 128.26901 | 13067 ft | 224 kts | 270° |
| 2026-04-22 23:02 | 26.13590 | 128.25174 | 12694 ft | 223 kts | 270° |
| 2026-04-22 23:03 | 26.13688 | 128.23452 | 12328 ft | 223 kts | 270° |
| 2026-04-22 23:03 | 26.13785 | 128.21732 | 11974 ft | 222 kts | 270° |
| 2026-04-22 23:03 | 26.13882 | 128.20019 | 11625 ft | 221 kts | 270° |
| 2026-04-22 23:03 | 26.13979 | 128.18317 | 11285 ft | 220 kts | 270° |
| 2026-04-22 23:04 | 26.14074 | 128.16619 | 10940 ft | 219 kts | 270° |
| 2026-04-22 23:04 | 26.14170 | 128.14925 | 10597 ft | 219 kts | 270° |
| 2026-04-22 23:04 | 26.14264 | 128.13242 | 10270 ft | 217 kts | 270° |
| 2026-04-22 23:04 | 26.14359 | 128.11562 | 9940 ft | 217 kts | 270° |
| 2026-04-22 23:05 | 26.14452 | 128.09891 | 9608 ft | 216 kts | 270° |
| 2026-04-22 23:05 | 26.14545 | 128.08228 | 9249 ft | 215 kts | 270° |
| 2026-04-22 23:05 | 26.14637 | 128.06580 | 8898 ft | 213 kts | 270° |
| 2026-04-22 23:05 | 26.14728 | 128.04944 | 8545 ft | 212 kts | 270° |
| 2026-04-22 23:06 | 26.14819 | 128.03311 | 8193 ft | 210 kts | 270° |
| 2026-04-22 23:06 | 26.14908 | 128.01705 | 7871 ft | 208 kts | 270° |
| 2026-04-22 23:06 | 26.14997 | 128.00098 | 7506 ft | 205 kts | 270° |
| 2026-04-22 23:06 | 26.15083 | 127.98557 | 7143 ft | 195 kts | 270° |
| 2026-04-22 23:07 | 26.15167 | 127.97066 | 6783 ft | 192 kts | 270° |
| 2026-04-22 23:07 | 26.15247 | 127.95597 | 6431 ft | 190 kts | 270° |
| 2026-04-22 23:07 | 26.15328 | 127.94129 | 6064 ft | 189 kts | 269° |
| 2026-04-22 23:07 | 26.15407 | 127.92675 | 5695 ft | 189 kts | 269° |
| 2026-04-22 23:08 | 26.15486 | 127.91221 | 5324 ft | 187 kts | 269° |
| 2026-04-22 23:08 | 26.15565 | 127.89786 | 4955 ft | 185 kts | 269° |
| 2026-04-22 23:08 | 26.15643 | 127.88355 | 4590 ft | 185 kts | 269° |
| 2026-04-22 23:08 | 26.15720 | 127.86925 | 4223 ft | 185 kts | 269° |
| 2026-04-22 23:09 | 26.15797 | 127.85517 | 4070 ft | 184 kts | 269° |
| 2026-04-22 23:09 | 26.15873 | 127.84099 | 4027 ft | 184 kts | 269° |
| 2026-04-22 23:09 | 26.16018 | 127.82707 | 3999 ft | 187 kts | 282° |
| 2026-04-22 23:09 | 26.16849 | 127.81526 | 3987 ft | 204 kts | 324° |
| 2026-04-22 23:10 | 26.18295 | 127.81269 | 3999 ft | 223 kts | 6° |
| 2026-04-22 23:10 | 26.19744 | 127.81939 | 4003 ft | 229 kts | 26° |
| 2026-04-22 23:10 | 26.21118 | 127.82891 | 4005 ft | 230 kts | 30° |
| 2026-04-22 23:10 | 26.22406 | 127.83812 | 4001 ft | 221 kts | 29° |
| 2026-04-22 23:11 | 26.23730 | 127.84721 | 4005 ft | 217 kts | 28° |
| 2026-04-22 23:11 | 26.25038 | 127.85578 | 4012 ft | 221 kts | 27° |
| 2026-04-22 23:11 | 26.26329 | 127.86407 | 3996 ft | 218 kts | 27° |
| 2026-04-22 23:11 | 26.27661 | 127.87248 | 4000 ft | 222 kts | 26° |
| 2026-04-22 23:12 | 26.28994 | 127.88079 | 3997 ft | 219 kts | 26° |
| 2026-04-22 23:12 | 26.30339 | 127.88905 | 3978 ft | 220 kts | 25° |
| 2026-04-22 23:12 | 26.31702 | 127.89739 | 3603 ft | 228 kts | 25° |
| 2026-04-22 23:12 | 26.33070 | 127.90576 | 3246 ft | 220 kts | 25° |
| 2026-04-22 23:13 | 26.34398 | 127.91390 | 2913 ft | 216 kts | 24° |
| 2026-04-22 23:13 | 26.35690 | 127.92181 | 2583 ft | 209 kts | 25° |
| 2026-04-22 23:13 | 26.36951 | 127.92953 | 2239 ft | 206 kts | 25° |
| 2026-04-22 23:13 | 26.38209 | 127.93720 | 2038 ft | 208 kts | 26° |
| 2026-04-22 23:14 | 26.39481 | 127.94495 | 2026 ft | 208 kts | 26° |
| 2026-04-22 23:14 | 26.40751 | 127.95270 | 2010 ft | 208 kts | 26° |
| 2026-04-22 23:14 | 26.42010 | 127.96038 | 1998 ft | 204 kts | 27° |
| 2026-04-22 23:14 | 26.43210 | 127.96774 | 1998 ft | 193 kts | 27° |
| 2026-04-22 23:15 | 26.44395 | 127.97499 | 2002 ft | 195 kts | 27° |
| 2026-04-22 23:15 | 26.45579 | 127.98224 | 1995 ft | 195 kts | 27° |
| 2026-04-22 23:15 | 26.46736 | 127.98933 | 1996 ft | 195 kts | 27° |
| 2026-04-22 23:15 | 26.47929 | 127.99665 | 1998 ft | 194 kts | 27° |
| 2026-04-22 23:16 | 26.49025 | 128.00509 | 1982 ft | 188 kts | 46° |
| 2026-04-22 23:16 | 26.49836 | 128.01664 | 1998 ft | 191 kts | 59° |
| 2026-04-22 23:16 | 26.50521 | 128.02946 | 2008 ft | 194 kts | 63° |
| 2026-04-22 23:16 | 26.51175 | 128.04259 | 2005 ft | 184 kts | 64° |
| 2026-04-22 23:17 | 26.51768 | 128.05472 | 1997 ft | 178 kts | 65° |
| 2026-04-22 23:17 | 26.52382 | 128.06710 | 1993 ft | 180 kts | 64° |
| 2026-04-22 23:17 | 26.52988 | 128.07924 | 1983 ft | 176 kts | 64° |
| 2026-04-22 23:17 | 26.53577 | 128.09109 | 2003 ft | 177 kts | 65° |
| 2026-04-22 23:18 | 26.54179 | 128.10300 | 1995 ft | 177 kts | 65° |
| 2026-04-22 23:18 | 26.54790 | 128.11497 | 1997 ft | 178 kts | 64° |
| 2026-04-22 23:18 | 26.55483 | 128.12665 | 1995 ft | 180 kts | 46° |
| 2026-04-22 23:18 | 26.56564 | 128.13247 | 2005 ft | 174 kts | 357° |
| 2026-04-22 23:19 | 26.57585 | 128.12841 | 1993 ft | 149 kts | 301° |
| 2026-04-22 23:19 | 26.57801 | 128.11856 | 1994 ft | 126 kts | 246° |
| 2026-04-22 23:19 | 26.57390 | 128.11026 | 1970 ft | 123 kts | 230° |
| 2026-04-22 23:19 | 26.56922 | 128.10245 | 2012 ft | 121 kts | 233° |
| 2026-04-22 23:20 | 26.56451 | 128.09469 | 2001 ft | 121 kts | 231° |
| 2026-04-22 23:20 | 26.55967 | 128.08690 | 1973 ft | 124 kts | 232° |
| 2026-04-22 23:20 | 26.55497 | 128.07891 | 1998 ft | 126 kts | 236° |
| 2026-04-22 23:20 | 26.55069 | 128.07049 | 2035 ft | 122 kts | 238° |
| 2026-04-22 23:21 | 26.54421 | 128.06546 | 1985 ft | 123 kts | 189° |
| 2026-04-22 23:21 | 26.53659 | 128.07105 | 2000 ft | 153 kts | 129° |
| 2026-04-22 23:21 | 26.53647 | 128.08315 | 2002 ft | 169 kts | 70° |
| 2026-04-22 23:21 | 26.54547 | 128.09138 | 2001 ft | 172 kts | 11° |
| 2026-04-22 23:22 | 26.55673 | 128.09001 | 1985 ft | 164 kts | 339° |
| 2026-04-22 23:22 | 26.56814 | 128.09086 | 1976 ft | 171 kts | 26° |
| 2026-04-22 23:22 | 26.57509 | 128.10111 | 2002 ft | 166 kts | 85° |
| 2026-04-22 23:22 | 26.57242 | 128.11209 | 1973 ft | 135 kts | 146° |
| 2026-04-22 23:23 | 26.56448 | 128.11386 | 2012 ft | 118 kts | 206° |
| 2026-04-22 23:23 | 26.55907 | 128.10705 | 1982 ft | 122 kts | 238° |
| 2026-04-22 23:23 | 26.55643 | 128.09795 | 2001 ft | 126 kts | 248° |
| 2026-04-22 23:23 | 26.55427 | 128.08842 | 1981 ft | 127 kts | 249° |
| 2026-04-22 23:24 | 26.55212 | 128.07882 | 1995 ft | 127 kts | 250° |
| 2026-04-22 23:24 | 26.54996 | 128.06949 | 2000 ft | 121 kts | 250° |
| 2026-04-22 23:24 | 26.54777 | 128.06043 | 1985 ft | 120 kts | 249° |
| 2026-04-22 23:24 | 26.54567 | 128.05139 | 2002 ft | 122 kts | 249° |
| 2026-04-22 23:25 | 26.54351 | 128.04215 | 1995 ft | 124 kts | 248° |
| 2026-04-22 23:25 | 26.54024 | 128.03317 | 1995 ft | 121 kts | 239° |
| 2026-04-22 23:25 | 26.53603 | 128.02523 | 2014 ft | 118 kts | 235° |
| 2026-04-22 23:25 | 26.53155 | 128.01738 | 1999 ft | 122 kts | 234° |
| 2026-04-22 23:26 | 26.52700 | 128.00933 | 1997 ft | 123 kts | 235° |
| 2026-04-22 23:26 | 26.52238 | 128.00113 | 1995 ft | 125 kts | 234° |
| 2026-04-22 23:26 | 26.51766 | 127.99305 | 1985 ft | 123 kts | 233° |
| 2026-04-22 23:26 | 26.51308 | 127.98515 | 2004 ft | 121 kts | 234° |
| 2026-04-22 23:27 | 26.50856 | 127.97718 | 1998 ft | 122 kts | 234° |
| 2026-04-22 23:27 | 26.50404 | 127.96912 | 1996 ft | 123 kts | 234° |
| 2026-04-22 23:27 | 26.49910 | 127.96140 | 1989 ft | 121 kts | 230° |
| 2026-04-22 23:27 | 26.49408 | 127.95421 | 2000 ft | 117 kts | 230° |
| 2026-04-22 23:28 | 26.48894 | 127.94730 | 2004 ft | 116 kts | 227° |
| 2026-04-22 23:28 | 26.48388 | 127.94078 | 1990 ft | 107 kts | 228° |
| 2026-04-22 23:28 | 26.47914 | 127.93449 | 1998 ft | 108 kts | 228° |
| 2026-04-22 23:28 | 26.47437 | 127.92801 | 1978 ft | 108 kts | 229° |
| 2026-04-22 23:29 | 26.46960 | 127.92152 | 1992 ft | 109 kts | 233° |
| 2026-04-22 23:29 | 26.46486 | 127.91489 | 2002 ft | 109 kts | 232° |
| 2026-04-22 23:29 | 26.46013 | 127.90834 | 2005 ft | 109 kts | 231° |
| 2026-04-22 23:29 | 26.45537 | 127.90169 | 2010 ft | 110 kts | 232° |
| 2026-04-22 23:30 | 26.45054 | 127.89498 | 2002 ft | 110 kts | 231° |
| 2026-04-22 23:30 | 26.44575 | 127.88835 | 1994 ft | 111 kts | 230° |
| 2026-04-22 23:30 | 26.44085 | 127.88158 | 1993 ft | 112 kts | 230° |
| 2026-04-22 23:30 | 26.43599 | 127.87487 | 1993 ft | 111 kts | 230° |
| 2026-04-22 23:31 | 26.43117 | 127.86823 | 1975 ft | 110 kts | 230° |
| 2026-04-22 23:31 | 26.42643 | 127.86171 | 1905 ft | 107 kts | 229° |
| 2026-04-22 23:31 | 26.42174 | 127.85525 | 1798 ft | 108 kts | 228° |
| 2026-04-22 23:31 | 26.41702 | 127.84875 | 1676 ft | 108 kts | 227° |
| 2026-04-22 23:32 | 26.41231 | 127.84228 | 1545 ft | 108 kts | 227° |
| 2026-04-22 23:32 | 26.40916 | 127.83795 | 1458 ft | 109 kts | 227° |
| 2026-04-22 23:32 | 26.40438 | 127.83137 | 1332 ft | 110 kts | 227° |
| 2026-04-22 23:32 | 26.39949 | 127.82463 | 1136 ft | 112 kts | 227° |
| 2026-04-22 23:33 | 26.39434 | 127.81762 | 987 ft | 126 kts | 230° |
| 2026-04-22 23:33 | 26.38901 | 127.81023 | 863 ft | 121 kts | 229° |
| 2026-04-22 23:33 | 26.38372 | 127.80296 | 671 ft | 123 kts | 230° |
| 2026-04-22 23:33 | 26.37839 | 127.79503 | 420 ft | 126 kts | 230° |
| 2026-04-22 23:34 | 26.37295 | 127.78775 | 220 ft | 117 kts | 223° |
| 2026-04-22 23:34 | 26.36928 | 127.78013 | 409 ft | 117 kts | 231° |
| 2026-04-22 23:34 | 26.36389 | 127.77497 | 233 ft | 107 kts | 218° |
| 2026-04-22 23:34 | 26.35908 | 127.76769 | 182 ft | 116 kts | 227° |
| 2026-04-22 23:35 | 26.35501 | 127.76295 | 133 ft | 41 kts | 209° |
| 2026-04-22 23:35 | 26.35439 | 127.76233 | 133 ft | 10 kts | 227° |
| 2026-04-22 23:35 | 26.35397 | 127.76186 | 133 ft | 7 kts | 226° |